City View Heights, Ohio
Current Conditions -  °F | °C
As of 12:53 AM on Sunday 23 Nov 2014 (Local Time) from KHAO Reporting Station
Broken Clouds Broken Clouds  
Wind Chill: 52°   Ceiling: 11000
Heat Index: 52°   Visibility: 10mi
Dew Point: 33°   Wind: 5mph
Humidity: 49%   Direction: 190°S
Pressure: 30.06"   Gusts: NA
Location:  39.4247°N, 84.5012°W
Report Text: KHAO 230553Z AUTO 19004KT 10SM FEW075 BKN110 11/01 A3006 RMK AO2 SLP180 T01110006 10139 20094 56006
Loading
Personal Weather Stations






























Interactive Weather Map New forecast layout! Learn more

10-Day Weather Forecast

Advertisements
Track Severe Weather on mobile